Time;durP1;ratioP1;P1;durP2;ratioP2;P2;SDS_P1;SDS_P2;PMS_P1;PMS_P2;Temp;Humidity;BMP_temperature;BMP_pressure;BME280_temperature;BME280_humidity;BME280_pressure;Samples;Min_cycle;Max_cycle;Signal;HPM_P1;HPM_P2
2023/09/21 00:01:00;;;;;;;;;13.00;11.00;;;;;19.63;100.00;98530.25;6269120;27;96348;-59
2023/09/21 00:04:03;;;;;;;;;10.00;8.80;;;;;19.61;100.00;98532.44;6268890;28;96302;-58
2023/09/21 00:07:06;;;;;;;;;11.80;11.40;;;;;19.60;100.00;98530.81;6269497;27;96359;-59
2023/09/21 00:10:10;;;;;;;;;11.80;11.80;;;;;19.58;100.00;98533.03;6269532;28;96373;-58
2023/09/21 00:13:15;;;;;;;;;12.60;11.60;;;;;19.55;100.00;98530.88;6269241;28;96964;-58
2023/09/21 00:16:20;;;;;;;;;11.40;10.60;;;;;19.53;100.00;98532.28;6269054;28;96373;-59
2023/09/21 00:19:23;;;;;;;;;10.80;10.20;;;;;19.51;100.00;98518.88;6267489;27;96329;-60
2023/09/21 00:22:32;;;;;;;;;13.00;13.00;;;;;19.48;100.00;98524.13;6268542;28;96183;-60
2023/09/21 00:25:37;;;;;;;;;11.00;10.00;;;;;19.50;100.00;98519.19;6302580;27;96736;-59
2023/09/21 00:28:43;;;;;;;;;12.20;11.80;;;;;19.43;100.00;98512.09;6266879;28;98765;-58
2023/09/21 00:31:47;;;;;;;;;12.00;10.80;;;;;19.46;100.00;98521.66;6268583;28;96239;-59
2023/09/21 00:34:52;;;;;;;;;6.80;6.00;;;;;19.45;100.00;98518.09;6269152;27;96363;-58
2023/09/21 00:37:56;;;;;;;;;15.00;12.75;;;;;19.44;100.00;98523.88;6268445;28;96940;-59
2023/09/21 00:41:02;;;;;;;;;12.00;11.00;;;;;19.44;100.00;98510.22;6268623;27;96341;-58
2023/09/21 00:44:11;;;;;;;;;9.25;9.00;;;;;19.43;100.00;98501.16;6268176;28;96268;-58
2023/09/21 00:47:15;;;;;;;;;8.00;8.00;;;;;19.44;100.00;98510.22;6267543;28;96397;-58
2023/09/21 00:50:21;;;;;;;;;10.80;9.80;;;;;19.42;100.00;98499.53;6267964;27;96465;-58
2023/09/21 00:53:27;;;;;;;;;13.00;11.40;;;;;19.39;100.00;98511.06;6268096;27;96403;-58
2023/09/21 00:56:31;;;;;;;;;10.20;9.60;;;;;19.43;100.00;98500.34;6267414;27;98573;-59
2023/09/21 00:59:39;;;;;;;;;9.80;9.80;;;;;19.44;100.00;98499.28;6268104;27;96654;-59
2023/09/21 01:02:43;;;;;;;;;10.00;10.00;;;;;19.45;100.00;98498.16;6266483;28;96485;-58
2023/09/21 01:05:50;;;;;;;;;10.80;9.80;;;;;19.41;100.00;98495.16;6249698;28;97511;-58
2023/09/21 01:08:54;;;;;;;;;11.00;10.00;;;;;19.42;100.00;98495.97;6249745;28;96761;-58
2023/09/21 01:11:59;;;;;;;;;9.00;9.00;;;;;19.41;100.00;98492.44;6262885;28;96896;-59
2023/09/21 01:15:10;;;;;;;;;9.60;8.60;;;;;19.39;100.00;98491.91;6261631;28;96912;-59
2023/09/21 01:18:16;;;;;;;;;9.00;8.50;;;;;19.34;100.00;98491.97;6268045;28;96421;-57
2023/09/21 01:21:34;;;;;;;;;10.80;9.00;;;;;19.29;100.00;98483.00;6266921;27;96468;-58
2023/09/21 01:24:40;;;;;;;;;11.00;10.40;;;;;19.24;100.00;98477.56;6267337;28;96361;-59
2023/09/21 01:27:43;;;;;;;;;11.00;10.00;;;;;19.21;100.00;98476.22;6267200;28;96305;-60
2023/09/21 01:30:47;;;;;;;;;10.60;10.00;;;;;19.18;100.00;98473.25;6283862;27;96392;-58
2023/09/21 01:33:51;;;;;;;;;10.20;10.00;;;;;19.14;100.00;98475.75;6266051;28;96236;-58
2023/09/21 01:36:55;;;;;;;;;10.20;8.20;;;;;19.14;100.00;98464.00;6249254;28;99062;-58
2023/09/21 01:40:00;;;;;;;;;11.00;10.60;;;;;19.12;100.00;98463.47;6266685;28;96350;-58
2023/09/21 01:43:05;;;;;;;;;11.60;9.00;;;;;19.10;100.00;98461.03;6264609;27;96303;-58
2023/09/21 01:46:09;;;;;;;;;12.00;11.00;;;;;19.08;100.00;98457.75;6267327;28;96281;-59
2023/09/21 01:49:14;;;;;;;;;12.75;11.00;;;;;19.06;100.00;98456.44;6266395;28;96255;-58
2023/09/21 01:52:18;;;;;;;;;9.00;8.50;;;;;19.01;100.00;98447.16;6248975;28;98658;-59
2023/09/21 01:55:23;;;;;;;;;10.00;9.20;;;;;19.06;100.00;98453.72;6299386;27;96318;-58
2023/09/21 01:58:26;;;;;;;;;9.40;9.40;;;;;19.03;100.00;98446.88;6266664;28;96381;-58
2023/09/21 02:01:29;;;;;;;;;11.00;10.00;;;;;19.02;100.00;98454.25;6292775;27;96345;-59
2023/09/21 02:04:32;;;;;;;;;9.00;9.00;;;;;19.01;100.00;98452.63;6264763;28;96336;-60
2023/09/21 02:07:36;;;;;;;;;9.00;9.00;;;;;18.98;100.00;98446.94;6256146;28;96703;-59
2023/09/21 02:10:41;;;;;;;;;10.60;10.00;;;;;18.95;100.00;98434.69;6263106;28;96292;-58
2023/09/21 02:13:45;;;;;;;;;10.00;9.60;;;;;18.95;100.00;98442.88;6269856;28;99245;-58
2023/09/21 02:16:48;;;;;;;;;14.00;13.00;;;;;18.93;100.00;98444.25;6269477;28;96807;-58
2023/09/21 02:19:52;;;;;;;;;11.80;11.00;;;;;18.90;100.00;98437.44;6303745;27;97309;-58
2023/09/21 02:22:57;;;;;;;;;14.00;13.40;;;;;18.88;100.00;98436.91;6269474;27;96693;-58
2023/09/21 02:26:04;;;;;;;;;10.60;10.60;;;;;18.87;100.00;98429.00;6271509;27;96238;-60
2023/09/21 02:29:09;;;;;;;;;12.00;11.00;;;;;18.87;100.00;98432.53;6282157;27;96469;-59
2023/09/21 02:32:13;;;;;;;;;13.60;11.00;;;;;18.85;100.00;98426.56;6263336;27;96654;-58
2023/09/21 02:35:19;;;;;;;;;12.25;11.25;;;;;18.82;100.00;98420.84;6270576;28;96925;-58
2023/09/21 02:38:22;;;;;;;;;11.00;10.00;;;;;18.81;100.00;98413.78;6253514;28;97175;-58
2023/09/21 02:41:27;;;;;;;;;9.00;8.00;;;;;18.80;100.00;98418.41;6271218;28;96347;-58
2023/09/21 02:44:30;;;;;;;;;11.00;9.20;;;;;18.77;100.00;98418.16;6270458;28;96383;-59
2023/09/21 02:47:33;;;;;;;;;10.00;9.80;;;;;18.79;100.00;98421.41;6252911;28;96725;-58
2023/09/21 02:50:36;;;;;;;;;10.60;8.60;;;;;18.77;100.00;98415.41;6268622;28;96314;-58
2023/09/21 02:53:42;;;;;;;;;9.00;9.00;;;;;18.77;100.00;98420.88;6269610;27;99200;-59
2023/09/21 02:56:47;;;;;;;;;8.50;7.75;;;;;18.79;100.00;98415.97;6270405;28;96293;-58
2023/09/21 02:59:51;;;;;;;;;9.00;8.00;;;;;18.84;100.00;98419.47;6304184;27;96238;-59
2023/09/21 03:02:56;;;;;;;;;9.75;7.00;;;;;18.86;100.00;98414.50;6267610;27;96633;-58
2023/09/21 03:06:00;;;;;;;;;8.60;7.60;;;;;18.84;100.00;98411.28;6252683;28;96675;-58
2023/09/21 03:09:05;;;;;;;;;8.00;7.80;;;;;18.82;100.00;98410.72;6270368;28;96347;-58
2023/09/21 03:12:09;;;;;;;;;8.00;7.75;;;;;18.65;100.00;98396.69;6269902;27;96270;-59
2023/09/21 03:15:14;;;;;;;;;8.00;7.00;;;;;18.75;100.00;98412.19;6268786;27;96367;-60
2023/09/21 03:18:19;;;;;;;;;10.00;8.60;;;;;18.70;100.00;98410.31;6251091;28;98500;-58
2023/09/21 03:21:24;;;;;;;;;6.80;6.00;;;;;18.67;100.00;98407.34;6270164;28;96950;-58
2023/09/21 03:24:28;;;;;;;;;9.75;9.00;;;;;18.66;100.00;98401.06;6267847;27;96321;-60
2023/09/21 03:27:32;;;;;;;;;8.00;7.40;;;;;18.62;100.00;98408.16;6252039;28;96774;-60
2023/09/21 03:30:35;;;;;;;;;7.40;6.60;;;;;18.63;100.00;98407.06;6266890;27;97823;-58
2023/09/21 03:33:39;;;;;;;;;9.40;7.80;;;;;18.57;100.00;98408.22;6268399;28;97866;-58
2023/09/21 03:36:42;;;;;;;;;8.00;8.00;;;;;18.51;100.00;98401.16;6251772;28;96681;-58
2023/09/21 03:39:46;;;;;;;;;9.00;8.00;;;;;18.47;100.00;98409.06;6268494;28;98593;-58
2023/09/21 03:42:50;;;;;;;;;6.60;6.40;;;;;18.44;100.00;98403.38;6268761;28;96265;-58
2023/09/21 03:45:53;;;;;;;;;9.00;8.00;;;;;18.43;100.00;98399.00;6268687;27;97664;-59
2023/09/21 03:48:57;;;;;;;;;9.00;7.60;;;;;18.40;100.00;98394.13;6246769;27;98588;-59
2023/09/21 03:52:00;;;;;;;;;9.25;8.00;;;;;18.37;100.00;98400.16;6267465;27;96244;-60
2023/09/21 03:55:05;;;;;;;;;7.00;7.00;;;;;18.34;100.00;98396.06;6267488;27;96290;-59
2023/09/21 03:58:12;;;;;;;;;8.00;8.00;;;;;18.30;100.00;98389.56;6263956;27;97334;-59
2023/09/21 04:01:17;;;;;;;;;8.00;8.00;;;;;18.26;100.00;98388.50;6264820;27;96396;-58
2023/09/21 04:04:21;;;;;;;;;6.00;6.00;;;;;18.27;100.00;98376.50;6266963;28;96823;-58
2023/09/21 04:07:25;;;;;;;;;6.60;6.60;;;;;18.27;100.00;98379.22;6264942;27;96308;-58
2023/09/21 04:10:30;;;;;;;;;5.80;5.00;;;;;18.26;100.00;98383.03;6266043;27;96718;-60
2023/09/21 04:13:34;;;;;;;;;7.60;6.60;;;;;18.31;100.00;98384.91;6278393;27;96801;-60
2023/09/21 04:16:38;;;;;;;;;6.25;5.00;;;;;18.34;100.00;98378.88;6248723;28;96861;-61
2023/09/21 04:19:43;;;;;;;;;6.00;6.00;;;;;18.38;100.00;98382.66;6265056;27;96401;-60
2023/09/21 04:22:49;;;;;;;;;7.40;7.00;;;;;18.42;100.00;98386.47;6266611;28;96297;-58
2023/09/21 04:25:52;;;;;;;;;8.40;7.40;;;;;18.47;100.00;98376.31;6267479;28;96241;-60
2023/09/21 04:28:57;;;;;;;;;6.00;6.00;;;;;18.48;100.00;98374.41;6278859;27;96205;-58
2023/09/21 04:32:01;;;;;;;;;6.20;6.20;;;;;18.49;100.00;98370.59;6264215;28;96907;-59
2023/09/21 04:35:05;;;;;;;;;7.00;5.40;;;;;18.49;100.00;98371.41;6247946;27;96716;-60
2023/09/21 04:38:09;;;;;;;;;7.25;7.00;;;;;18.47;100.00;98378.25;6260642;27;96205;-58
2023/09/21 04:41:14;;;;;;;;;8.00;7.50;;;;;18.49;100.00;98371.41;6256880;28;96967;-58
2023/09/21 04:44:20;;;;;;;;;7.40;7.00;;;;;18.52;100.00;98370.03;6256275;27;96880;-58
2023/09/21 04:47:24;;;;;;;;;8.50;7.50;;;;;18.57;100.00;98370.00;6294124;27;96262;-58
2023/09/21 04:50:28;;;;;;;;;8.80;8.80;;;;;18.57;100.00;98372.72;6246589;27;98386;-59
2023/09/21 04:53:31;;;;;;;;;6.00;4.80;;;;;18.57;100.00;98379.00;6274485;27;96778;-60
2023/09/21 04:56:36;;;;;;;;;9.60;9.00;;;;;18.60;100.00;98372.16;6240306;27;98429;-64
2023/09/21 04:59:41;;;;;;;;;7.50;6.75;;;;;18.61;100.00;98373.81;6236843;27;96380;-65
2023/09/21 05:02:45;;;;;;;;;11.20;9.80;;;;;18.71;100.00;98375.63;6237268;28;96576;-64
2023/09/21 05:05:54;;;;;;;;;8.00;7.20;;;;;18.83;100.00;98373.31;6236607;28;98935;-64
2023/09/21 05:08:58;;;;;;;;;7.00;7.00;;;;;18.87;100.00;98371.63;6236927;27;96347;-64
2023/09/21 05:12:03;;;;;;;;;7.00;7.00;;;;;18.97;100.00;98371.53;6227989;28;98405;-65
2023/09/21 05:15:14;;;;;;;;;9.00;7.75;;;;;19.10;100.00;98365.41;6229668;28;98397;-65
2023/09/21 05:18:18;;;;;;;;;8.00;8.00;;;;;19.19;100.00;98368.31;6220034;28;96985;-65
2023/09/21 05:21:21;;;;;;;;;8.40;7.40;;;;;19.28;100.00;98361.91;6251388;27;96897;-65
2023/09/21 05:24:25;;;;;;;;;6.80;6.00;;;;;19.44;100.00;98359.88;6216118;28;96705;-65
2023/09/21 05:27:30;;;;;;;;;10.00;9.40;;;;;19.61;100.00;98367.56;6232567;28;96438;-64
2023/09/21 05:30:35;;;;;;;;;9.00;8.60;;;;;19.75;100.00;98371.22;6237554;27;96446;-64
2023/09/21 05:33:38;;;;;;;;;7.00;7.00;;;;;19.90;100.00;98368.25;6234843;28;96701;-65
2023/09/21 05:36:42;;;;;;;;;9.60;8.00;;;;;20.11;100.00;98368.81;6235530;27;96755;-64
2023/09/21 05:39:45;;;;;;;;;10.00;10.00;;;;;20.27;100.00;98367.47;6238652;27;96309;-65
2023/09/21 05:42:48;;;;;;;;;13.50;13.00;;;;;20.47;100.00;98377.31;6237123;28;98513;-65
2023/09/21 05:45:52;;;;;;;;;12.00;10.00;;;;;20.64;100.00;98370.19;6240145;28;98441;-65
2023/09/21 05:48:56;;;;;;;;;10.00;10.00;;;;;20.85;100.00;98378.06;6263091;27;96349;-65
2023/09/21 05:52:00;;;;;;;;;11.60;10.60;;;;;21.05;100.00;98377.69;6240353;27;96626;-65
2023/09/21 05:55:03;;;;;;;;;10.40;9.40;;;;;21.24;100.00;98385.88;6242528;28;96398;-64
2023/09/21 05:58:07;;;;;;;;;12.00;11.00;;;;;21.45;100.00;98374.19;6242833;27;96782;-65
2023/09/21 06:01:13;;;;;;;;;8.33;8.00;;;;;21.67;100.00;98375.41;6241584;28;96867;-64
2023/09/21 06:04:17;;;;;;;;;10.00;9.80;;;;;21.84;100.00;98381.09;6242012;27;96431;-65
2023/09/21 06:07:22;;;;;;;;;10.00;9.00;;;;;22.10;100.00;98381.34;6242074;28;96947;-65
2023/09/21 06:10:25;;;;;;;;;8.00;8.00;;;;;22.35;100.00;98378.84;6242298;28;96567;-65
2023/09/21 06:13:29;;;;;;;;;9.00;8.00;;;;;22.61;100.00;98378.25;6225331;28;98460;-65
2023/09/21 06:16:37;;;;;;;;;7.80;7.00;;;;;22.82;100.00;98371.94;6242732;28;96380;-65
2023/09/21 06:19:40;;;;;;;;;9.00;8.40;;;;;23.06;100.00;98384.53;6241890;28;96521;-65
2023/09/21 06:22:44;;;;;;;;;8.00;7.60;;;;;23.26;100.00;98379.28;6242171;28;95932;-64
2023/09/21 06:25:48;;;;;;;;;11.00;10.00;;;;;23.42;100.00;98378.88;6243971;27;96743;-64
2023/09/21 06:28:51;;;;;;;;;8.20;7.20;;;;;23.56;100.00;98374.09;6243399;28;96690;-65
2023/09/21 06:31:56;;;;;;;;;9.00;9.00;;;;;23.79;100.00;98381.16;6246514;28;96358;-65
2023/09/21 06:35:15;;;;;;;;;8.00;7.80;;;;;24.10;100.00;98376.34;6246390;28;96662;-65
2023/09/21 06:38:19;;;;;;;;;10.00;9.00;;;;;24.42;100.00;98390.81;6247518;28;96308;-64
2023/09/21 06:41:22;;;;;;;;;8.80;7.20;;;;;24.77;100.00;98381.41;6247137;28;96405;-65
2023/09/21 06:44:28;;;;;;;;;12.00;10.00;;;;;25.08;100.00;98383.13;6247029;28;98626;-65
2023/09/21 06:47:32;;;;;;;;;6.50;6.50;;;;;25.33;100.00;98385.81;6229866;28;96754;-65
2023/09/21 06:50:40;;;;;;;;;11.80;11.80;;;;;25.57;100.00;98379.72;6246918;27;96721;-65
2023/09/21 06:53:44;;;;;;;;;8.80;8.80;;;;;25.91;100.00;98377.91;6246374;27;96598;-64
2023/09/21 06:56:48;;;;;;;;;9.00;8.00;;;;;26.25;100.00;98377.72;6244111;28;99806;-65
2023/09/21 06:59:52;;;;;;;;;10.25;9.00;;;;;26.70;100.00;98375.88;6250327;28;96380;-65
2023/09/21 07:02:57;;;;;;;;;10.00;9.00;;;;;27.20;100.00;98379.63;6262905;27;96689;-65
2023/09/21 07:06:00;;;;;;;;;12.00;10.00;;;;;27.73;100.00;98370.34;6282970;27;96748;-65
2023/09/21 07:09:04;;;;;;;;;8.00;7.60;;;;;28.23;100.00;98381.06;6253273;28;96398;-65
2023/09/21 07:12:07;;;;;;;;;9.20;8.80;;;;;28.66;100.00;98377.56;6234778;28;96801;-65
2023/09/21 07:15:11;;;;;;;;;7.60;6.00;;;;;28.96;100.00;98380.81;6252529;28;96321;-65
2023/09/21 07:18:16;;;;;;;;;7.00;7.00;;;;;29.35;100.00;98382.72;6250444;28;96730;-65
2023/09/21 07:21:19;;;;;;;;;7.75;6.75;;;;;29.79;100.00;98375.06;6249447;28;98571;-66
2023/09/21 07:24:22;;;;;;;;;8.00;6.40;;;;;30.19;100.00;98366.50;6250987;27;96760;-66
2023/09/21 07:27:26;;;;;;;;;5.60;5.00;;;;;30.62;100.00;98361.88;6249371;28;96757;-66
2023/09/21 07:30:31;;;;;;;;;7.00;5.00;;;;;31.03;100.00;98363.13;6228333;28;96980;-65
2023/09/21 07:33:36;;;;;;;;;4.60;4.40;;;;;31.58;100.00;98361.72;6243530;28;96900;-65
2023/09/21 07:36:39;;;;;;;;;6.50;5.00;;;;;31.91;100.00;98361.06;6245719;27;96285;-66
2023/09/21 07:39:42;;;;;;;;;6.00;5.25;;;;;32.28;100.00;98356.44;6246573;28;96417;-65
2023/09/21 07:42:48;;;;;;;;;8.00;7.00;;;;;32.69;100.00;98359.41;6246510;28;96558;-65
2023/09/21 07:45:52;;;;;;;;;6.00;5.00;;;;;32.86;100.00;98348.44;6246666;28;96524;-65
2023/09/21 07:48:57;;;;;;;;;5.40;5.40;;;;;33.05;100.00;98344.63;6247390;28;96434;-66
2023/09/21 07:52:00;;;;;;;;;5.00;5.00;;;;;33.33;100.00;98342.13;6248180;27;96315;-66
2023/09/21 07:55:04;;;;;;;;;6.00;5.00;;;;;33.57;100.00;98346.34;6248432;28;96859;-66
2023/09/21 07:58:09;;;;;;;;;6.00;5.60;;;;;33.56;100.00;98346.72;6230478;28;96781;-65
2023/09/21 08:01:12;;;;;;;;;6.00;6.00;;;;;33.76;100.00;98350.91;6247788;27;96762;-65
2023/09/21 08:04:19;;;;;;;;;5.00;5.00;;;;;34.02;100.00;98347.09;6246471;28;98354;-65
2023/09/21 08:07:26;;;;;;;;;6.00;5.60;;;;;34.42;100.00;98340.53;6252487;28;96414;-65
2023/09/21 08:10:32;;;;;;;;;6.60;5.60;;;;;34.90;100.00;98330.75;6253809;28;98185;-64
2023/09/21 08:13:35;;;;;;;;;6.00;5.60;;;;;35.17;99.13;98331.25;6258951;28;96948;-64
2023/09/21 08:16:38;;;;;;;;;5.00;5.00;;;;;35.56;100.00;98329.25;6240788;28;98627;-64
2023/09/21 08:19:43;;;;;;;;;5.00;5.00;;;;;35.50;98.73;98325.25;6260422;28;97009;-64
2023/09/21 08:22:48;;;;;;;;;5.50;4.00;;;;;35.55;100.00;98327.66;6257524;28;96838;-65
2023/09/21 08:25:52;;;;;;;;;6.00;6.00;;;;;35.86;96.54;98325.25;6261849;28;96488;-65
2023/09/21 08:28:55;;;;;;;;;6.00;6.00;;;;;36.09;94.26;98322.81;6261912;28;96372;-64
2023/09/21 08:31:58;;;;;;;;;4.00;4.00;;;;;36.27;94.59;98317.94;6265383;28;96327;-64
2023/09/21 08:35:04;;;;;;;;;5.00;4.00;;;;;36.74;90.87;98325.03;6266615;28;96382;-65
2023/09/21 08:38:08;;;;;;;;;4.50;3.50;;;;;36.81;87.62;98319.34;6265952;28;96263;-65
2023/09/21 08:41:13;;;;;;;;;4.00;4.00;;;;;37.15;87.50;98313.94;6280388;27;98438;-60
2023/09/21 08:44:17;;;;;;;;;6.00;5.40;;;;;37.51;87.11;98316.47;6262639;28;96821;-60
2023/09/21 08:47:21;;;;;;;;;6.60;5.60;;;;;37.70;84.65;98305.50;6262426;28;96946;-59
2023/09/21 08:50:40;;;;;;;;;5.60;4.60;;;;;37.84;83.43;98312.19;6263539;28;96263;-60
2023/09/21 08:53:50;;;;;;;;;4.40;4.40;;;;;38.08;84.11;98311.16;6263743;28;98966;-60
2023/09/21 08:56:57;;;;;;;;;4.00;4.00;;;;;38.42;80.00;98311.16;6264975;28;96302;-59
2023/09/21 09:00:06;;;;;;;;;3.00;3.00;;;;;38.76;78.06;98311.94;6265768;28;96587;-60
2023/09/21 09:03:10;;;;;;;;;4.40;4.00;;;;;38.51;76.30;98303.81;6266312;28;97659;-60
2023/09/21 09:06:15;;;;;;;;;3.80;3.00;;;;;38.53;79.79;98309.84;6265745;27;96274;-60
2023/09/21 09:09:19;;;;;;;;;2.75;2.75;;;;;38.58;78.05;98308.56;6265724;28;96332;-60
2023/09/21 09:12:24;;;;;;;;;4.00;4.00;;;;;38.65;73.43;98302.06;6266260;28;96507;-60
2023/09/21 09:15:34;;;;;;;;;4.80;4.80;;;;;38.91;74.04;98298.47;6263659;28;98362;-60
2023/09/21 09:18:38;;;;;;;;;3.00;3.00;;;;;38.94;73.42;98303.28;6265372;28;96836;-60
2023/09/21 09:21:44;;;;;;;;;3.00;3.00;;;;;38.89;68.95;98301.75;6292267;27;96280;-60
2023/09/21 09:24:48;;;;;;;;;3.80;3.80;;;;;38.96;71.79;98295.97;6266458;28;96581;-60
2023/09/21 09:27:51;;;;;;;;;4.00;4.00;;;;;38.54;71.33;98290.94;6248452;28;97682;-61
2023/09/21 09:30:55;;;;;;;;;3.40;2.40;;;;;38.35;72.25;98283.91;6265319;28;96258;-60
2023/09/21 09:34:04;;;;;;;;;6.00;5.60;;;;;37.99;69.78;98280.69;6263032;28;96589;-60
2023/09/21 09:37:14;;;;;;;;;6.00;4.00;;;;;37.55;73.79;98280.72;6262882;28;96732;-60
2023/09/21 09:40:23;;;;;;;;;5.00;4.60;;;;;37.39;76.17;98278.41;6263911;28;96318;-60
2023/09/21 09:43:29;;;;;;;;;6.00;6.00;;;;;37.53;78.71;98274.69;6264951;28;96263;-59
2023/09/21 09:46:35;;;;;;;;;2.80;2.80;;;;;37.64;75.37;98279.00;6263808;28;98959;-60
2023/09/21 09:49:40;;;;;;;;;4.00;4.00;;;;;37.59;72.82;98284.28;6264795;27;96320;-59
2023/09/21 09:52:51;;;;;;;;;3.00;3.00;;;;;37.65;73.35;98282.63;6265444;27;96339;-60
2023/09/21 09:55:57;;;;;;;;;3.00;3.00;;;;;37.81;73.02;98276.44;6263119;28;96883;-60
2023/09/21 09:59:03;;;;;;;;;3.60;3.60;;;;;38.37;73.46;98275.81;6264862;28;96500;-60
2023/09/21 10:02:07;;;;;;;;;4.00;3.00;;;;;38.74;69.06;98272.13;6264078;28;98898;-60
2023/09/21 10:05:12;;;;;;;;;2.00;1.40;;;;;38.88;66.92;98271.97;6264444;28;96868;-60
2023/09/21 10:08:18;;;;;;;;;2.00;2.00;;;;;38.93;67.61;98268.66;6261435;28;96844;-60
2023/09/21 10:11:23;;;;;;;;;3.00;3.00;;;;;39.34;65.63;98264.84;6260632;28;96216;-60
2023/09/21 10:14:26;;;;;;;;;3.00;3.00;;;;;39.11;60.49;98256.31;6261435;28;96337;-60
2023/09/21 10:17:30;;;;;;;;;3.00;3.00;;;;;39.12;59.70;98249.44;6261217;28;96807;-60
2023/09/21 10:20:33;;;;;;;;;3.00;3.00;;;;;39.23;62.60;98250.06;6261930;28;96349;-60
2023/09/21 10:23:37;;;;;;;;;4.00;3.25;;;;;39.33;63.18;98249.13;6259795;28;96365;-61
2023/09/21 10:26:45;;;;;;;;;2.00;2.00;;;;;39.35;52.84;98250.28;6265664;27;96487;-61
2023/09/21 10:29:53;;;;;;;;;4.00;3.00;;;;;38.79;49.13;98253.97;6267318;28;96350;-60
2023/09/21 10:32:57;;;;;;;;;3.00;3.00;;;;;38.78;53.01;98246.72;6266350;27;96299;-60
2023/09/21 10:36:01;;;;;;;;;2.00;2.00;;;;;39.02;54.41;98231.47;6265100;28;97220;-60
2023/09/21 10:39:33;;;;;;;;;2.00;2.00;;;;;39.35;57.06;98232.56;6266454;27;96183;-61
2023/09/21 10:42:37;;;;;;;;;2.00;2.00;;;;;38.85;57.75;98226.91;6220214;28;96259;-61
2023/09/21 10:45:55;;;;;;;;;3.00;3.00;;;;;38.68;52.58;98219.50;6264944;28;96699;-60
2023/09/21 10:49:14;;;;;;;;;5.00;3.00;;;;;38.66;55.98;98213.50;6263994;28;98561;-60
2023/09/21 10:52:18;;;;;;;;;4.00;3.00;;;;;38.74;54.98;98206.53;6264754;27;96361;-61
2023/09/21 10:55:22;;;;;;;;;3.00;2.75;;;;;38.34;53.71;98203.47;6263658;28;96330;-60
2023/09/21 10:58:26;;;;;;;;;3.00;2.00;;;;;38.43;57.05;98206.53;6264213;28;96341;-61
2023/09/21 11:01:30;;;;;;;;;3.00;3.00;;;;;38.38;53.50;98195.75;6261581;28;98504;-61
2023/09/21 11:04:33;;;;;;;;;2.40;2.40;;;;;38.66;54.67;98176.88;6262003;27;96945;-61
2023/09/21 11:07:37;;;;;;;;;1.80;1.80;;;;;37.97;53.24;98179.00;6287562;27;96337;-61
2023/09/21 11:10:42;;;;;;;;;4.00;4.00;;;;;38.11;54.20;98180.84;6261275;28;96541;-61
2023/09/21 11:13:50;;;;;;;;;4.00;3.00;;;;;38.29;56.22;98184.22;6264282;28;96630;-61
2023/09/21 11:16:53;;;;;;;;;4.00;4.00;;;;;38.57;55.41;98169.75;6246272;28;98401;-60
2023/09/21 11:19:57;;;;;;;;;3.00;3.00;;;;;38.79;56.57;98170.22;6264253;27;96627;-61
2023/09/21 11:23:02;;;;;;;;;2.00;2.00;;;;;39.43;52.50;98172.00;6270285;27;96237;-61
2023/09/21 11:26:11;;;;;;;;;2.00;2.00;;;;;39.86;49.41;98159.88;6266654;27;96317;-61
2023/09/21 11:29:16;;;;;;;;;4.00;3.20;;;;;39.35;43.85;98147.94;6255057;27;98450;-61
2023/09/21 11:32:19;;;;;;;;;2.00;2.00;;;;;38.93;46.63;98147.47;6262378;27;96749;-61
2023/09/21 11:35:23;;;;;;;;;2.80;2.00;;;;;38.79;46.57;98146.88;6257739;28;96845;-61
2023/09/21 11:38:29;;;;;;;;;4.80;4.00;;;;;39.12;51.16;98145.94;6261455;27;96402;-61
2023/09/21 11:41:33;;;;;;;;;2.00;2.00;;;;;38.92;45.10;98139.44;6261738;28;96339;-61
2023/09/21 11:44:37;;;;;;;;;3.00;3.00;;;;;38.91;46.53;98140.66;6261679;28;96470;-61
2023/09/21 11:47:48;;;;;;;;;7.00;7.00;;;;;38.86;48.46;98135.47;6260350;28;96279;-62
2023/09/21 11:50:53;;;;;;;;;5.00;3.00;;;;;39.11;52.83;98132.25;6261777;28;97190;-61
2023/09/21 11:53:58;;;;;;;;;3.00;3.00;;;;;39.28;48.31;98126.31;6261771;28;96240;-61
2023/09/21 11:57:04;;;;;;;;;4.00;4.00;;;;;38.40;47.65;98116.50;6264938;28;96251;-61
2023/09/21 12:00:14;;;;;;;;;4.00;4.00;;;;;38.17;47.18;98110.81;6264006;28;96322;-62
2023/09/21 12:03:18;;;;;;;;;4.00;4.00;;;;;38.01;51.52;98100.97;6263979;28;98368;-61
2023/09/21 12:06:27;;;;;;;;;3.20;2.60;;;;;37.97;55.99;98097.38;6265345;28;96317;-60
2023/09/21 12:09:31;;;;;;;;;3.00;3.00;;;;;38.05;56.97;98089.66;6264655;28;98617;-61
2023/09/21 12:12:35;;;;;;;;;3.00;2.00;;;;;37.87;54.74;98083.47;6264313;28;98437;-61
2023/09/21 12:15:39;;;;;;;;;2.50;2.00;;;;;37.70;56.04;98088.88;6262998;28;99121;-61
2023/09/21 12:18:43;;;;;;;;;3.00;3.00;;;;;37.11;54.59;98093.16;6265771;27;96235;-61
2023/09/21 12:21:48;;;;;;;;;2.40;2.00;;;;;37.30;53.26;98090.53;6280703;27;96644;-60
2023/09/21 12:24:53;;;;;;;;;4.50;3.75;;;;;37.57;56.59;98081.44;6264047;28;96432;-61
2023/09/21 12:27:58;;;;;;;;;3.00;2.20;;;;;37.73;51.77;98076.78;6264019;28;96308;-61
2023/09/21 12:31:01;;;;;;;;;2.40;2.40;;;;;37.91;52.26;98072.94;6264771;28;96341;-61
2023/09/21 12:34:06;;;;;;;;;3.00;3.00;;;;;37.72;50.87;98060.34;6264835;27;96751;-61
2023/09/21 12:37:11;;;;;;;;;3.00;3.00;;;;;37.92;55.26;98063.28;6262675;28;98961;-60
2023/09/21 12:40:16;;;;;;;;;3.00;3.00;;;;;38.04;53.53;98066.34;6264306;28;96676;-60
2023/09/21 12:43:21;;;;;;;;;4.40;4.00;;;;;37.89;55.31;98053.66;6246852;28;96712;-61
2023/09/21 12:46:27;;;;;;;;;2.60;2.00;;;;;37.16;59.61;98047.75;6263266;28;96643;-61
2023/09/21 12:49:30;;;;;;;;;3.40;2.80;;;;;36.35;61.92;98054.88;6262137;27;96911;-60
2023/09/21 12:52:34;;;;;;;;;2.00;2.00;;;;;35.75;65.33;98039.22;6265511;28;96381;-61
2023/09/21 12:55:40;;;;;;;;;2.00;2.00;;;;;35.35;67.83;98037.75;6265980;28;97079;-61
2023/09/21 12:58:45;;;;;;;;;3.00;3.00;;;;;34.91;70.59;98038.25;6260885;28;98665;-61
2023/09/21 13:01:52;;;;;;;;;3.00;2.00;;;;;34.85;71.23;98034.28;6240233;28;98567;-61
2023/09/21 13:04:57;;;;;;;;;3.00;3.00;;;;;35.14;72.75;98035.00;6267978;28;97025;-60
2023/09/21 13:08:00;;;;;;;;;2.80;2.80;;;;;35.05;70.60;98038.22;6267897;27;96792;-61
2023/09/21 13:11:03;;;;;;;;;3.40;3.00;;;;;34.95;71.85;98024.25;6277839;27;98661;-61
2023/09/21 13:14:08;;;;;;;;;4.00;4.00;;;;;34.57;73.70;98021.09;6267473;27;96236;-60
2023/09/21 13:17:12;;;;;;;;;3.00;3.00;;;;;34.46;73.24;98009.09;6266265;28;96339;-61
2023/09/21 13:20:19;;;;;;;;;3.40;3.40;;;;;34.73;73.58;98009.50;6268259;28;96325;-61
2023/09/21 13:23:23;;;;;;;;;2.40;2.00;;;;;34.89;71.26;98001.47;6268043;27;96278;-60
2023/09/21 13:26:26;;;;;;;;;3.00;3.00;;;;;34.80;72.33;98003.09;6300074;27;96877;-61
2023/09/21 13:29:31;;;;;;;;;3.00;3.00;;;;;34.50;74.22;97995.94;6262725;28;96914;-61
2023/09/21 13:32:34;;;;;;;;;2.25;2.00;;;;;34.30;74.38;97998.34;6250471;28;96405;-61
2023/09/21 13:35:37;;;;;;;;;2.00;2.00;;;;;34.09;74.11;98000.28;6259928;27;96315;-60
2023/09/21 13:38:40;;;;;;;;;3.00;3.00;;;;;33.26;78.51;97983.69;6250835;28;96835;-60
2023/09/21 13:41:50;;;;;;;;;3.50;3.00;;;;;33.24;80.21;97981.28;6261823;27;96661;-61
2023/09/21 13:44:54;;;;;;;;;4.75;4.00;;;;;33.08;80.21;97984.41;6249279;28;96353;-60
2023/09/21 13:47:57;;;;;;;;;3.00;3.00;;;;;32.61;81.80;97976.94;6268050;27;96873;-60
2023/09/21 13:51:01;;;;;;;;;3.00;3.00;;;;;32.81;84.09;97968.28;6266758;27;98438;-60
2023/09/21 13:54:05;;;;;;;;;3.60;3.00;;;;;32.83;84.27;97968.72;6266746;27;96632;-61
2023/09/21 13:57:08;;;;;;;;;5.00;4.00;;;;;32.25;85.79;97972.31;6267539;27;96784;-61
2023/09/21 14:00:14;;;;;;;;;6.00;6.00;;;;;32.19;86.74;97965.47;6267884;27;96330;-61
2023/09/21 14:03:18;;;;;;;;;4.00;3.60;;;;;32.17;89.16;97974.22;6273307;27;96121;-60
2023/09/21 14:06:22;;;;;;;;;5.00;5.00;;;;;31.81;89.12;97975.84;6271426;27;96390;-61
2023/09/21 14:09:25;;;;;;;;;5.50;5.00;;;;;31.28;89.79;97974.47;6271577;27;96328;-60
2023/09/21 14:12:28;;;;;;;;;5.60;5.60;;;;;31.24;91.95;97974.44;6254947;28;98520;-61
2023/09/21 14:15:33;;;;;;;;;5.00;5.00;;;;;31.40;89.99;97972.22;6271620;28;98419;-60
2023/09/21 14:18:36;;;;;;;;;5.00;5.00;;;;;31.30;89.72;97972.09;6272844;27;96267;-60
2023/09/21 14:21:42;;;;;;;;;3.00;3.00;;;;;31.50;89.72;97976.31;6271588;28;99027;-60